Time;durP1;ratioP1;P1;durP2;ratioP2;P2;SDS_P1;SDS_P2;PMS_P1;PMS_P2;Temp;Humidity;BMP_temperature;BMP_pressure;BME280_temperature;BME280_humidity;BME280_pressure;Samples;Min_cycle;Max_cycle;Signal;HPM_P1;HPM_P2
2022/08/17 00:01:26;;;;;;;;;15.33;14.33;;;;;-145.03;100.00;62373.16;5064384;28;45575;-73
2022/08/17 00:03:52;;;;;;;;;12.00;12.00;;;;;-145.03;100.00;62373.16;5078019;27;45597;-73
2022/08/17 00:06:26;;;;;;;;;16.00;13.33;;;;;-145.03;100.00;62373.16;5076856;27;45761;-72
2022/08/17 00:08:56;;;;;;;;;14.67;14.67;;;;;-145.03;100.00;62373.16;5077097;27;47197;-72
2022/08/17 00:11:28;;;;;;;;;18.67;16.33;;;;;-145.03;100.00;62373.16;5074788;28;45519;-72
2022/08/17 00:13:58;;;;;;;;;16.00;14.67;;;;;-145.03;100.00;62373.16;5076877;27;45361;-72
2022/08/17 00:16:30;;;;;;;;;11.33;10.33;;;;;-145.03;100.00;62373.16;5084366;27;45522;-73
2022/08/17 00:18:57;;;;;;;;;9.33;8.00;;;;;-145.03;100.00;62373.16;5075094;27;47017;-72
2022/08/17 00:21:22;;;;;;;;;11.00;11.00;;;;;-145.03;100.00;62373.16;5081214;27;45714;-73
2022/08/17 00:23:48;;;;;;;;;14.33;14.00;;;;;-145.03;100.00;62373.16;5085264;27;45590;-73
2022/08/17 00:26:14;;;;;;;;;12.67;11.67;;;;;-145.03;100.00;62373.16;5076366;27;45492;-73
2022/08/17 00:28:40;;;;;;;;;18.00;17.33;;;;;-145.03;100.00;62373.16;5076760;28;47300;-73
2022/08/17 00:31:08;;;;;;;;;11.33;11.33;;;;;-145.03;100.00;62373.16;5079792;27;45531;-72
2022/08/17 00:33:33;;;;;;;;;11.33;11.33;;;;;-145.03;100.00;62373.16;5081804;27;45456;-72
2022/08/17 00:36:01;;;;;;;;;10.00;10.00;;;;;-145.03;100.00;62373.16;5085790;27;45408;-73
2022/08/17 00:38:28;;;;;;;;;13.00;13.00;;;;;-145.03;100.00;62373.16;5086070;27;46217;-72
2022/08/17 00:40:59;;;;;;;;;13.33;13.00;;;;;-145.03;100.00;62373.16;5085742;27;45527;-72
2022/08/17 00:43:31;;;;;;;;;16.67;14.00;;;;;-145.03;100.00;62373.16;5083942;27;45590;-73
2022/08/17 00:45:58;;;;;;;;;16.00;14.33;;;;;-145.03;100.00;62373.16;5076314;27;45690;-73
2022/08/17 00:48:23;;;;;;;;;16.67;15.67;;;;;-145.03;100.00;62373.16;5084152;27;46466;-72
2022/08/17 00:51:17;;;;;;;;;16.33;15.00;;;;;-145.03;100.00;62373.16;5088073;27;45477;-73
2022/08/17 00:53:48;;;;;;;;;18.67;14.67;;;;;-145.03;100.00;62373.16;5102312;27;45420;-73
2022/08/17 00:56:19;;;;;;;;;15.33;15.33;;;;;-145.03;100.00;62373.16;5090181;27;45475;-73
2022/08/17 00:58:46;;;;;;;;;16.67;16.00;;;;;-145.03;100.00;62373.16;5074684;27;46290;-73
2022/08/17 01:01:12;;;;;;;;;19.00;16.33;;;;;-145.03;100.00;62373.16;5077516;27;45442;-73
2022/08/17 01:03:39;;;;;;;;;16.67;15.67;;;;;-145.03;100.00;62373.16;5068818;27;45705;-73
2022/08/17 01:06:06;;;;;;;;;18.00;17.00;;;;;-145.03;100.00;62373.16;5085276;27;45470;-72
2022/08/17 01:08:33;;;;;;;;;16.33;15.67;;;;;-145.03;100.00;62373.16;5076215;28;45448;-73
2022/08/17 01:11:00;;;;;;;;;17.67;16.33;;;;;-145.03;100.00;62373.16;5089826;27;45485;-73
2022/08/17 01:13:29;;;;;;;;;18.67;17.33;;;;;-145.03;100.00;62373.16;5075397;28;45666;-72
2022/08/17 01:16:14;;;;;;;;;19.67;16.67;;;;;-145.03;100.00;62373.16;5076805;28;45509;-72
2022/08/17 01:18:41;;;;;;;;;16.00;15.33;;;;;-145.03;100.00;62373.16;5065564;27;47014;-73
2022/08/17 01:21:14;;;;;;;;;17.00;16.00;;;;;-145.03;100.00;62373.16;5094978;27;45608;-72
2022/08/17 01:23:41;;;;;;;;;17.00;16.33;;;;;-145.03;100.00;62373.16;5096476;27;45427;-72
2022/08/17 01:26:07;;;;;;;;;17.00;17.00;;;;;-145.03;100.00;62373.16;5086885;27;45710;-73
2022/08/17 01:28:34;;;;;;;;;16.33;16.33;;;;;-145.03;100.00;62373.16;5074255;27;46844;-73
2022/08/17 01:31:03;;;;;;;;;16.00;13.67;;;;;-145.03;100.00;62373.16;5094021;27;45740;-72
2022/08/17 01:33:29;;;;;;;;;16.67;15.67;;;;;-145.03;100.00;62373.16;5086659;27;45467;-73
2022/08/17 01:35:55;;;;;;;;;13.67;13.33;;;;;-145.03;100.00;62373.16;5081783;27;45690;-73
2022/08/17 01:38:21;;;;;;;;;17.33;15.00;;;;;-145.03;100.00;62373.16;5078393;27;45552;-73
2022/08/17 01:40:53;;;;;;;;;14.67;14.67;;;;;-145.03;100.00;62373.16;5086956;27;45444;-73
2022/08/17 01:43:24;;;;;;;;;19.33;18.67;;;;;-145.03;100.00;62373.16;5074935;28;45441;-72
2022/08/17 01:45:52;;;;;;;;;17.33;16.67;;;;;-145.03;100.00;62373.16;5087965;27;45654;-73
2022/08/17 01:48:18;;;;;;;;;17.33;16.33;;;;;-145.03;100.00;62373.16;5079550;27;45571;-72
2022/08/17 01:50:46;;;;;;;;;22.33;16.33;;;;;-145.03;100.00;62373.16;5080380;27;46941;-73
2022/08/17 01:53:25;;;;;;;;;17.00;16.00;;;;;-145.03;100.00;62373.16;5096218;27;45442;-73
2022/08/17 01:55:57;;;;;;;;;16.00;16.00;;;;;-145.03;100.00;62373.16;5093078;27;45622;-73
2022/08/17 01:58:23;;;;;;;;;16.33;16.33;;;;;-145.03;100.00;62373.16;5083990;27;46681;-73
2022/08/17 02:00:50;;;;;;;;;12.67;12.00;;;;;-145.03;100.00;62373.16;5081802;27;46914;-73
2022/08/17 02:03:18;;;;;;;;;20.67;17.00;;;;;-145.03;100.00;62373.16;5074441;28;45357;-73
2022/08/17 02:05:44;;;;;;;;;16.67;15.67;;;;;-145.03;100.00;62373.16;5074866;28;45414;-73
2022/08/17 02:08:09;;;;;;;;;13.67;13.67;;;;;-145.03;100.00;62373.16;5090469;27;46338;-73
2022/08/17 02:10:35;;;;;;;;;9.00;7.33;;;;;-145.03;100.00;62373.16;5089120;27;45775;-73
2022/08/17 02:13:03;;;;;;;;;14.67;13.67;;;;;-145.03;100.00;62373.16;5085329;27;45472;-73
2022/08/17 02:15:28;;;;;;;;;14.33;14.33;;;;;-145.03;100.00;62373.16;5079584;27;45484;-73
2022/08/17 02:17:54;;;;;;;;;15.67;14.00;;;;;-145.03;100.00;62373.16;5083524;27;46007;-73
2022/08/17 02:20:19;;;;;;;;;16.67;14.00;;;;;-145.03;100.00;62373.16;5083871;27;45603;-73
2022/08/17 02:22:46;;;;;;;;;15.67;13.33;;;;;-145.03;100.00;62373.16;5087697;27;45613;-72
2022/08/17 02:25:15;;;;;;;;;16.00;14.33;;;;;-145.03;100.00;62373.16;5088492;27;45518;-72
2022/08/17 02:27:41;;;;;;;;;17.00;14.67;;;;;-145.03;100.00;62373.16;5075533;28;46699;-72
2022/08/17 02:30:10;;;;;;;;;15.00;15.00;;;;;-145.03;100.00;62373.16;5078543;27;45467;-73
2022/08/17 02:32:35;;;;;;;;;13.67;12.00;;;;;-145.03;100.00;62373.16;5098055;27;45796;-73
2022/08/17 02:35:01;;;;;;;;;14.00;10.33;;;;;-145.03;100.00;62373.16;5096969;27;45443;-73
2022/08/17 02:37:28;;;;;;;;;14.67;13.67;;;;;-145.03;100.00;62373.16;5080203;27;47228;-73
2022/08/17 02:39:58;;;;;;;;;13.67;11.00;;;;;-145.03;100.00;62373.16;5076635;27;45524;-73
2022/08/17 02:42:37;;;;;;;;;15.00;11.33;;;;;-145.03;100.00;62373.16;5095901;27;45570;-72
2022/08/17 02:45:05;;;;;;;;;11.00;10.00;;;;;-145.03;100.00;62373.16;5082069;27;45550;-73
2022/08/17 02:47:31;;;;;;;;;9.00;9.00;;;;;-145.03;100.00;62373.16;5092298;27;46126;-72
2022/08/17 02:49:56;;;;;;;;;19.00;13.67;;;;;-145.03;100.00;62373.16;5077473;28;45456;-73
2022/08/17 02:52:24;;;;;;;;;14.00;12.00;;;;;-145.03;100.00;62373.16;5091336;27;45959;-73
2022/08/17 02:54:49;;;;;;;;;13.33;11.67;;;;;-145.03;100.00;62373.16;5079105;27;45460;-72
2022/08/17 02:57:15;;;;;;;;;10.67;10.00;;;;;-145.03;100.00;62373.16;5075769;28;46203;-73
2022/08/17 02:59:41;;;;;;;;;13.33;13.33;;;;;-145.03;100.00;62373.16;5084272;27;45541;-72
2022/08/17 03:02:09;;;;;;;;;13.33;11.00;;;;;-145.03;100.00;62373.16;5084713;27;45600;-72
2022/08/17 03:04:35;;;;;;;;;11.33;10.67;;;;;-145.03;100.00;62373.16;5083038;27;45515;-72
2022/08/17 03:07:00;;;;;;;;;12.00;10.67;;;;;-145.03;100.00;62373.16;5085790;27;46078;-72
2022/08/17 03:09:25;;;;;;;;;13.00;12.00;;;;;-145.03;100.00;62373.16;5077674;27;45379;-72
2022/08/17 03:11:51;;;;;;;;;10.67;10.67;;;;;-145.03;100.00;62373.16;5077107;28;45448;-72
2022/08/17 03:14:17;;;;;;;;;12.67;12.67;;;;;-145.03;100.00;62373.16;5091621;27;45532;-73
2022/08/17 03:16:43;;;;;;;;;10.67;9.00;;;;;-145.03;100.00;62373.16;5088128;27;47281;-72
2022/08/17 03:19:08;;;;;;;;;14.33;12.00;;;;;-145.03;100.00;62373.16;5096923;27;45346;-72
2022/08/17 03:21:34;;;;;;;;;14.00;11.00;;;;;-145.03;100.00;62373.16;5096116;27;45457;-72
2022/08/17 03:24:00;;;;;;;;;10.33;10.33;;;;;-145.03;100.00;62373.16;5096185;27;45452;-72
2022/08/17 03:26:26;;;;;;;;;14.00;13.33;;;;;-145.03;100.00;62373.16;5057351;28;46405;-72
2022/08/17 03:28:51;;;;;;;;;12.33;12.33;;;;;-145.03;100.00;62373.16;5072515;28;45516;-72
2022/08/17 03:31:17;;;;;;;;;14.67;13.67;;;;;-145.03;100.00;62373.16;5076901;28;45608;-72
2022/08/17 03:33:42;;;;;;;;;13.33;12.33;;;;;-145.03;100.00;62373.16;5078005;28;45522;-72
2022/08/17 03:36:08;;;;;;;;;13.33;12.00;;;;;-145.03;100.00;62373.16;5080941;27;46226;-73
2022/08/17 03:38:33;;;;;;;;;14.67;11.67;;;;;-145.03;100.00;62373.16;5083371;27;45461;-73
2022/08/17 03:40:59;;;;;;;;;14.33;14.33;;;;;-145.03;100.00;62373.16;5076069;27;45607;-73
2022/08/17 03:43:26;;;;;;;;;14.67;14.67;;;;;-145.03;100.00;62373.16;5083163;27;45547;-73
2022/08/17 03:57:05;;;;;;;;;14.67;10.33;;;;;-145.03;100.00;62373.16;5076538;28;45689;-72
2022/08/17 03:59:31;;;;;;;;;14.00;14.00;;;;;-145.03;100.00;62373.16;5075810;28;45432;-72
2022/08/17 04:02:00;;;;;;;;;16.67;14.67;;;;;-145.03;100.00;62373.16;5077791;28;45596;-73
2022/08/17 04:04:25;;;;;;;;;11.00;11.00;;;;;-145.03;100.00;62373.16;5077917;28;45556;-73
2022/08/17 04:06:51;;;;;;;;;12.67;12.67;;;;;-145.03;100.00;62373.16;5077446;28;45542;-73
2022/08/17 04:09:17;;;;;;;;;14.67;12.67;;;;;-145.03;100.00;62373.16;5092793;27;45565;-73
2022/08/17 04:11:42;;;;;;;;;16.33;12.67;;;;;-145.03;100.00;62373.16;5076162;27;45542;-73
2022/08/17 04:14:08;;;;;;;;;13.33;11.67;;;;;-145.03;100.00;62373.16;5095544;27;45574;-73
2022/08/17 04:16:35;;;;;;;;;15.33;15.00;;;;;-145.03;100.00;62373.16;5079288;27;45725;-72
2022/08/17 04:19:01;;;;;;;;;14.67;13.67;;;;;-145.03;100.00;62373.16;5098022;27;45909;-73
2022/08/17 04:21:26;;;;;;;;;14.00;12.67;;;;;-145.03;100.00;62373.16;5086334;27;45628;-72
2022/08/17 04:23:52;;;;;;;;;10.33;10.33;;;;;-145.03;100.00;62373.16;5094929;27;45539;-73
2022/08/17 04:26:18;;;;;;;;;13.00;12.33;;;;;-145.03;100.00;62373.16;5082583;27;46104;-72
2022/08/17 04:28:44;;;;;;;;;17.00;15.00;;;;;-145.03;100.00;62373.16;5065523;28;46763;-73
2022/08/17 04:31:10;;;;;;;;;13.67;12.67;;;;;-145.03;100.00;62373.16;5074157;27;45515;-73
2022/08/17 04:33:36;;;;;;;;;15.33;14.00;;;;;-145.03;100.00;62373.16;5076291;28;45602;-73
2022/08/17 04:36:04;;;;;;;;;15.00;13.67;;;;;-145.03;100.00;62373.16;5077921;27;47300;-72
2022/08/17 04:38:32;;;;;;;;;13.67;12.67;;;;;-145.03;100.00;62373.16;5080998;27;45412;-72
2022/08/17 04:43:44;;;;;;;;;17.33;15.00;;;;;-145.03;100.00;62373.16;5077754;27;45908;-72
2022/08/17 04:46:13;;;;;;;;;15.67;11.67;;;;;-145.03;100.00;62373.16;5087115;27;46365;-72
2022/08/17 04:48:58;;;;;;;;;14.00;12.67;;;;;-145.03;100.00;62373.16;5077788;27;45494;-72
2022/08/17 04:51:49;;;;;;;;;14.00;12.67;;;;;-145.03;100.00;62373.16;5078752;27;45605;-72
2022/08/17 04:54:20;;;;;;;;;13.33;12.00;;;;;-145.03;100.00;62373.16;5086061;27;45739;-72
2022/08/17 04:56:46;;;;;;;;;10.67;8.33;;;;;-145.03;100.00;62373.16;5093459;27;48234;-72
2022/08/17 04:59:18;;;;;;;;;22.00;15.00;;;;;-145.03;100.00;62373.16;5086908;27;45448;-72
2022/08/17 05:01:45;;;;;;;;;16.33;13.67;;;;;-145.03;100.00;62373.16;5082713;27;45464;-72
2022/08/17 05:04:15;;;;;;;;;13.67;13.67;;;;;-145.03;100.00;62373.16;5079141;27;45721;-72
2022/08/17 05:06:41;;;;;;;;;13.33;13.33;;;;;-145.03;100.00;62373.16;5074431;27;45698;-72
2022/08/17 05:09:06;;;;;;;;;19.33;13.67;;;;;-145.03;100.00;62373.16;5083532;27;45505;-72
2022/08/17 05:11:32;;;;;;;;;15.33;15.33;;;;;-145.03;100.00;62373.16;5086148;27;45542;-72
2022/08/17 05:13:58;;;;;;;;;17.00;12.33;;;;;-145.03;100.00;62373.16;5084946;27;45323;-72
2022/08/17 05:16:25;;;;;;;;;12.00;12.00;;;;;-145.03;100.00;62373.16;5076815;27;46116;-72
2022/08/17 05:18:51;;;;;;;;;14.33;14.33;;;;;-145.03;100.00;62373.16;5078747;27;45897;-72
2022/08/17 05:21:18;;;;;;;;;13.67;13.67;;;;;-145.03;100.00;62373.16;5076120;27;45542;-72
2022/08/17 05:23:44;;;;;;;;;16.67;14.67;;;;;-145.03;100.00;62373.16;5076921;27;45803;-72
2022/08/17 05:26:12;;;;;;;;;11.33;10.33;;;;;-145.03;100.00;62373.16;5071103;27;46365;-72
2022/08/17 05:28:38;;;;;;;;;13.67;12.33;;;;;-145.03;100.00;62373.16;5086925;27;45859;-74
2022/08/17 05:31:03;;;;;;;;;19.00;16.67;;;;;-145.03;100.00;62373.16;5082158;27;45421;-71
2022/08/17 05:33:33;;;;;;;;;17.33;15.33;;;;;-145.03;100.00;62373.16;5074722;27;45729;-72
2022/08/17 05:35:59;;;;;;;;;14.33;14.33;;;;;-145.03;100.00;62373.16;5086562;27;47105;-73
2022/08/17 05:38:27;;;;;;;;;14.00;14.00;;;;;-145.03;100.00;62373.16;5097152;27;45834;-73
2022/08/17 05:40:54;;;;;;;;;17.67;15.67;;;;;-145.03;100.00;62373.16;5065776;27;45486;-72
2022/08/17 05:43:21;;;;;;;;;10.00;8.00;;;;;-145.03;100.00;62373.16;5076024;27;45701;-72
2022/08/17 05:45:55;;;;;;;;;15.67;15.33;;;;;-145.03;100.00;62373.16;5075501;27;46101;-72
2022/08/17 05:48:21;;;;;;;;;16.33;14.33;;;;;-145.03;100.00;62373.16;5075390;27;45876;-72
2022/08/17 05:51:14;;;;;;;;;15.67;14.33;;;;;-145.03;100.00;62373.16;5072275;27;45678;-73
2022/08/17 05:54:17;;;;;;;;;20.00;18.00;;;;;-145.03;100.00;62373.16;5071751;27;45555;-73
2022/08/17 05:56:42;;;;;;;;;13.50;11.50;;;;;-145.03;100.00;62373.16;5069554;27;46407;-73
2022/08/17 05:59:34;;;;;;;;;14.33;14.33;;;;;-145.03;100.00;62373.16;5067118;27;45476;-72
2022/08/17 06:01:59;;;;;;;;;18.67;16.67;;;;;-145.03;100.00;62373.16;5069145;27;45521;-73
2022/08/17 06:04:58;;;;;;;;;20.33;18.00;;;;;-145.03;100.00;62373.16;5078594;27;45529;-72
2022/08/17 06:07:52;;;;;;;;;22.67;18.67;;;;;-145.03;100.00;62373.16;5076256;27;45544;-74
2022/08/17 06:10:39;;;;;;;;;17.33;16.67;;;;;-145.03;100.00;62373.16;5071417;27;45448;-72
2022/08/17 06:13:10;;;;;;;;;19.33;18.67;;;;;-145.03;100.00;62373.16;5071204;27;45541;-71
2022/08/17 06:15:38;;;;;;;;;19.33;16.67;;;;;-145.03;100.00;62373.16;5076629;27;45508;-73
2022/08/17 06:18:08;;;;;;;;;17.67;16.00;;;;;-145.03;100.00;62373.16;5077688;27;47393;-71
2022/08/17 06:20:53;;;;;;;;;13.67;11.33;;;;;-145.03;100.00;62373.16;5075043;27;45430;-73
2022/08/17 06:23:31;;;;;;;;;16.33;14.67;;;;;-145.03;100.00;62373.16;5083288;27;45472;-69
2022/08/17 06:26:02;;;;;;;;;17.67;16.00;;;;;-145.03;100.00;62373.16;5076791;27;45844;-68
2022/08/17 06:28:42;;;;;;;;;21.00;17.67;;;;;-145.03;100.00;62373.16;5080989;27;47267;-73
2022/08/17 06:31:18;;;;;;;;;21.33;19.00;;;;;-145.03;100.00;62373.16;5087712;27;45728;-75
2022/08/17 06:33:45;;;;;;;;;19.33;16.33;;;;;-145.03;100.00;62373.16;5078211;27;45409;-72
2022/08/17 06:36:42;;;;;;;;;17.33;17.33;;;;;-145.03;100.00;62373.16;5083016;27;45634;-69
2022/08/17 06:39:32;;;;;;;;;18.67;14.67;;;;;-145.03;100.00;62373.16;5070648;27;45550;-72
2022/08/17 06:42:08;;;;;;;;;19.33;16.33;;;;;-145.03;100.00;62373.16;5072088;27;45623;-70
2022/08/17 06:44:41;;;;;;;;;18.67;18.67;;;;;-145.03;100.00;62373.16;5074307;28;45642;-70
2022/08/17 06:47:29;;;;;;;;;17.33;16.33;;;;;-145.03;100.00;62373.16;5077953;28;45610;-69
2022/08/17 06:50:09;;;;;;;;;21.00;17.67;;;;;-145.03;100.00;62373.16;5078657;28;45554;-70
2022/08/17 06:53:02;;;;;;;;;17.00;17.00;;;;;-145.03;100.00;62373.16;5085006;27;45444;-69
2022/08/17 06:56:05;;;;;;;;;16.33;14.67;;;;;-145.03;100.00;62373.16;5075084;27;45422;-70
2022/08/17 06:58:32;;;;;;;;;21.00;16.67;;;;;-145.03;100.00;62373.16;5070506;28;45411;-69
2022/08/17 07:01:09;;;;;;;;;14.33;14.33;;;;;-145.03;100.00;62373.16;5078149;27;47854;-71
2022/08/17 07:04:08;;;;;;;;;28.67;24.67;;;;;-145.03;100.00;62373.16;5078228;27;45729;-70
2022/08/17 07:06:43;;;;;;;;;30.00;26.67;;;;;-145.03;100.00;62373.16;5087550;27;45544;-70
2022/08/17 07:09:13;;;;;;;;;20.67;18.67;;;;;-145.03;100.00;62373.16;5070605;28;45559;-70
2022/08/17 07:12:00;;;;;;;;;18.00;17.33;;;;;-145.03;100.00;62373.16;5088847;27;46141;-70
2022/08/17 07:14:28;;;;;;;;;22.00;17.00;;;;;-145.03;100.00;62373.16;5093811;27;45367;-70
2022/08/17 07:16:57;;;;;;;;;13.67;13.33;;;;;-145.03;100.00;62373.16;5078839;28;45334;-69
2022/08/17 07:19:26;;;;;;;;;15.00;14.67;;;;;-145.03;100.00;62373.16;5079153;28;45417;-69
2022/08/17 07:22:13;;;;;;;;;17.33;16.67;;;;;-145.03;100.00;62373.16;5077465;28;46304;-69
2022/08/17 07:24:48;;;;;;;;;19.67;18.67;;;;;-145.03;100.00;62373.16;5078710;28;45385;-68
2022/08/17 07:27:21;;;;;;;;;21.33;18.67;;;;;-145.03;100.00;62373.16;5088392;27;45389;-67
2022/08/17 07:29:53;;;;;;;;;22.33;19.67;;;;;-145.03;100.00;62373.16;5098910;27;45384;-67
2022/08/17 07:32:44;;;;;;;;;15.67;14.67;;;;;-145.03;100.00;62373.16;5078198;27;46444;-67
2022/08/17 07:35:22;;;;;;;;;12.33;12.00;;;;;-145.03;100.00;62373.16;5085891;27;45601;-69
2022/08/17 07:37:54;;;;;;;;;18.00;15.33;;;;;-145.03;100.00;62373.16;5065086;27;45606;-69
2022/08/17 07:40:35;;;;;;;;;15.33;12.00;;;;;-145.03;100.00;62373.16;5077607;27;45562;-69
2022/08/17 07:43:19;;;;;;;;;15.67;15.00;;;;;-145.03;100.00;62373.16;5086128;27;46389;-68
2022/08/17 07:48:50;;;;;;;;;15.00;13.67;;;;;-145.03;100.00;62373.16;5077924;28;45593;-69
2022/08/17 07:51:30;;;;;;;;;16.00;15.00;;;;;-145.03;100.00;62373.16;5078008;27;45490;-69
2022/08/17 07:53:59;;;;;;;;;14.33;14.00;;;;;-145.03;100.00;62373.16;5077678;28;47236;-69
2022/08/17 07:56:57;;;;;;;;;15.00;14.00;;;;;-145.03;100.00;62373.16;5078275;27;45434;-69
2022/08/17 07:59:28;;;;;;;;;18.00;16.33;;;;;-145.03;100.00;62373.16;5072225;27;45784;-69
2022/08/17 08:01:56;;;;;;;;;12.67;11.00;;;;;-145.03;100.00;62373.16;5078166;28;45392;-69
2022/08/17 08:04:33;;;;;;;;;16.00;13.33;;;;;-145.03;100.00;62373.16;5076394;28;46390;-69
2022/08/17 08:07:01;;;;;;;;;13.67;13.67;;;;;-145.03;100.00;62373.16;5077628;28;45433;-69
2022/08/17 08:09:38;;;;;;;;;14.00;14.00;;;;;-145.03;100.00;62373.16;5076272;28;45514;-69
2022/08/17 08:12:28;;;;;;;;;17.00;14.00;;;;;-145.03;100.00;62373.16;5083510;27;45541;-69
2022/08/17 08:15:12;;;;;;;;;12.00;12.00;;;;;-145.03;100.00;62373.16;5086077;27;46299;-69
2022/08/17 08:17:56;;;;;;;;;13.33;13.33;;;;;-145.03;100.00;62373.16;5081972;27;45566;-69
2022/08/17 08:20:34;;;;;;;;;15.67;14.33;;;;;-145.03;100.00;62373.16;5087022;27;45535;-68
2022/08/17 08:23:10;;;;;;;;;12.00;12.00;;;;;-145.03;100.00;62373.16;5080964;27;45372;-69
2022/08/17 08:26:00;;;;;;;;;14.67;14.00;;;;;-145.03;100.00;62373.16;5089344;27;45544;-80
2022/08/17 08:28:35;;;;;;;;;16.00;15.67;;;;;-145.03;100.00;62373.16;5094944;27;45521;-80
2022/08/17 08:31:17;;;;;;;;;15.00;14.00;;;;;-145.03;100.00;62373.16;5073919;27;45509;-80
2022/08/17 08:33:55;;;;;;;;;17.00;15.67;;;;;-145.03;100.00;62373.16;5095829;27;45457;-80
2022/08/17 08:36:39;;;;;;;;;13.67;13.67;;;;;-145.03;100.00;62373.16;5096728;27;47395;-82
2022/08/17 08:39:29;;;;;;;;;12.67;12.67;;;;;-145.03;100.00;62373.16;5089149;27;45573;-82
2022/08/17 08:42:22;;;;;;;;;12.00;12.00;;;;;-145.03;100.00;62373.16;5097972;27;45397;-81
2022/08/17 08:44:59;;;;;;;;;14.67;12.33;;;;;-145.03;100.00;62373.16;5044230;28;45661;-81
2022/08/17 08:47:56;;;;;;;;;20.00;15.33;;;;;-145.03;100.00;62373.16;5036841;28;46449;-81
2022/08/17 08:50:22;;;;;;;;;14.00;13.00;;;;;-145.03;100.00;62373.16;5034353;28;45506;-81
2022/08/17 08:53:13;;;;;;;;;14.67;14.00;;;;;-145.03;100.00;62373.16;5025565;28;45499;-81
2022/08/17 08:56:25;;;;;;;;;15.33;14.33;;;;;-145.03;100.00;62373.16;5049637;28;45552;-81
2022/08/17 08:59:03;;;;;;;;;16.67;16.00;;;;;-145.03;100.00;62373.16;5032066;28;46096;-81
2022/08/17 09:01:59;;;;;;;;;16.00;12.33;;;;;-145.03;100.00;62373.16;5031309;28;45589;-81
2022/08/17 09:05:02;;;;;;;;;15.00;13.67;;;;;-145.03;100.00;62373.16;5034263;28;45711;-82
2022/08/17 09:07:52;;;;;;;;;16.33;14.33;;;;;-145.03;100.00;62373.16;5023430;28;45412;-82
2022/08/17 09:10:33;;;;;;;;;14.33;13.00;;;;;-145.03;100.00;62373.16;5010409;28;47195;-82
2022/08/17 09:13:10;;;;;;;;;14.33;13.00;;;;;-145.03;100.00;62373.16;5011956;28;45588;-82
2022/08/17 09:15:47;;;;;;;;;15.33;13.67;;;;;-145.03;100.00;62373.16;5005900;28;45899;-82
2022/08/17 09:18:20;;;;;;;;;14.33;14.33;;;;;-145.03;100.00;62373.16;5000284;28;45554;-80
2022/08/17 09:20:55;;;;;;;;;18.00;14.67;;;;;-145.03;100.00;62373.16;5013389;28;45603;-80
2022/08/17 09:23:32;;;;;;;;;16.00;15.00;;;;;-145.03;100.00;62373.16;5028003;28;45681;-81
2022/08/17 09:26:04;;;;;;;;;17.00;16.67;;;;;-145.03;100.00;62373.16;5025473;28;45682;-79
2022/08/17 09:28:35;;;;;;;;;15.67;13.00;;;;;-145.03;100.00;62373.16;5028479;28;45585;-79
2022/08/17 09:31:07;;;;;;;;;17.00;15.33;;;;;-145.03;100.00;62373.16;5021301;28;45725;-79
2022/08/17 09:33:39;;;;;;;;;15.00;15.00;;;;;-145.03;100.00;62373.16;5005248;28;45513;-78
2022/08/17 09:36:12;;;;;;;;;14.33;13.67;;;;;-145.03;100.00;62373.16;5022733;28;45428;-79
2022/08/17 09:39:00;;;;;;;;;17.67;16.33;;;;;-145.03;100.00;62373.16;5040308;28;45627;-79
2022/08/17 09:41:31;;;;;;;;;16.67;16.67;;;;;-145.03;100.00;62373.16;5028646;28;46214;-79
2022/08/17 09:44:21;;;;;;;;;14.33;13.67;;;;;-145.03;100.00;62373.16;5049631;27;45534;-79
2022/08/17 09:46:54;;;;;;;;;15.33;15.33;;;;;-145.03;100.00;62373.16;5068392;27;45780;-79
2022/08/17 09:49:32;;;;;;;;;17.33;17.33;;;;;-145.03;100.00;62373.16;5082508;27;45486;-80
2022/08/17 09:52:06;;;;;;;;;18.67;17.33;;;;;-145.03;100.00;62373.16;5075003;27;46594;-78
2022/08/17 09:54:36;;;;;;;;;15.67;12.33;;;;;-145.03;100.00;62373.16;5091134;27;45568;-78
2022/08/17 09:57:27;;;;;;;;;16.67;14.33;;;;;-145.03;100.00;62373.16;5083851;27;45642;-78
2022/08/17 09:59:56;;;;;;;;;16.33;15.00;;;;;-145.03;100.00;62373.16;5089522;27;45553;-78
2022/08/17 10:02:52;;;;;;;;;15.67;14.67;;;;;-145.03;100.00;62373.16;5089744;27;46327;-78
2022/08/17 10:05:25;;;;;;;;;14.67;13.67;;;;;-145.03;100.00;62373.16;5075016;28;45392;-78
2022/08/17 10:08:08;;;;;;;;;15.33;15.00;;;;;-145.03;100.00;62373.16;5082754;27;45424;-78
2022/08/17 10:10:49;;;;;;;;;16.67;15.00;;;;;-145.03;100.00;62373.16;5081798;27;45555;-78
2022/08/17 10:13:29;;;;;;;;;20.33;16.67;;;;;-145.03;100.00;62373.16;5085559;27;45668;-78
2022/08/17 10:16:11;;;;;;;;;15.67;14.33;;;;;-145.03;100.00;62373.16;5082500;27;45471;-78
2022/08/17 10:19:09;;;;;;;;;17.33;16.67;;;;;-145.03;100.00;62373.16;5079362;27;45763;-78
2022/08/17 10:27:31;;;;;;;;;18.33;15.33;;;;;-145.03;100.00;62373.16;5096159;27;45444;-77
2022/08/17 10:30:03;;;;;;;;;18.33;18.33;;;;;-145.03;100.00;62373.16;5085011;27;45575;-72
2022/08/17 10:32:37;;;;;;;;;17.33;17.33;;;;;-145.03;100.00;62373.16;5076488;28;45475;-77
2022/08/17 10:35:19;;;;;;;;;18.67;17.00;;;;;-145.03;100.00;62373.16;5075417;27;46031;-70
2022/08/17 10:38:22;;;;;;;;;15.67;15.33;;;;;-145.03;100.00;62373.16;5077622;27;45385;-74
2022/08/17 10:40:48;;;;;;;;;17.00;17.00;;;;;-145.03;100.00;62373.16;5094619;27;45477;-74
2022/08/17 10:43:34;;;;;;;;;16.67;16.00;;;;;-145.03;100.00;62373.16;5082147;27;45559;-74
2022/08/17 10:46:05;;;;;;;;;19.00;16.33;;;;;-145.03;100.00;62373.16;5086454;27;47373;-76
2022/08/17 10:48:35;;;;;;;;;17.67;17.67;;;;;-145.03;100.00;62373.16;5096410;27;45641;-76
2022/08/17 10:51:00;;;;;;;;;18.67;17.67;;;;;-145.03;100.00;62373.16;5077867;27;45924;-76
2022/08/17 10:53:32;;;;;;;;;17.00;16.33;;;;;-145.03;100.00;62373.16;5073968;27;45572;-76
2022/08/17 10:56:12;;;;;;;;;17.67;15.67;;;;;-145.03;100.00;62373.16;5081111;27;45461;-77
2022/08/17 10:58:54;;;;;;;;;15.33;14.33;;;;;-145.03;100.00;62373.16;5079689;27;45548;-78
2022/08/17 11:02:11;;;;;;;;;20.67;18.67;;;;;-145.03;100.00;62373.16;5078718;28;45564;-74
2022/08/17 11:04:46;;;;;;;;;18.67;17.33;;;;;-145.03;100.00;62373.16;5039642;28;45466;-76
2022/08/17 11:07:33;;;;;;;;;19.00;17.00;;;;;-145.03;100.00;62373.16;5055960;28;46943;-74
2022/08/17 11:10:34;;;;;;;;;21.67;19.00;;;;;-145.03;100.00;62373.16;5055924;28;45522;-72
2022/08/17 11:13:30;;;;;;;;;18.00;15.33;;;;;-145.03;100.00;62373.16;4995833;28;45648;-73
2022/08/17 11:15:55;;;;;;;;;21.00;17.33;;;;;-145.03;100.00;62373.16;4996317;28;45534;-73
2022/08/17 11:18:53;;;;;;;;;19.67;17.00;;;;;-145.03;100.00;62373.16;4995712;28;45814;-73
2022/08/17 11:21:19;;;;;;;;;18.00;18.00;;;;;-145.03;100.00;62373.16;4995441;28;45463;-74
2022/08/17 11:23:44;;;;;;;;;19.33;15.67;;;;;-145.03;100.00;62373.16;4994916;28;45499;-72
2022/08/17 11:26:37;;;;;;;;;16.33;15.33;;;;;-145.03;100.00;62373.16;4995794;28;45537;-72
2022/08/17 11:29:17;;;;;;;;;19.00;19.00;;;;;-145.03;100.00;62373.16;4994055;28;46679;-73
2022/08/17 11:31:57;;;;;;;;;16.67;16.67;;;;;-145.03;100.00;62373.16;4995710;28;45538;-71
2022/08/17 11:34:25;;;;;;;;;16.00;15.00;;;;;-145.03;100.00;62373.16;4995720;28;45522;-73
2022/08/17 11:37:25;;;;;;;;;19.67;18.67;;;;;-145.03;100.00;62373.16;4999326;28;45555;-72
2022/08/17 11:40:08;;;;;;;;;18.33;17.67;;;;;-145.03;100.00;62373.16;4984407;28;46647;-75
2022/08/17 11:42:55;;;;;;;;;20.00;18.67;;;;;-145.03;100.00;62373.16;5034997;28;45566;-73
2022/08/17 11:45:33;;;;;;;;;20.33;17.00;;;;;-145.03;100.00;62373.16;5035070;28;45508;-73
2022/08/17 11:54:08;;;;;;;;;31.67;29.00;;;;;-145.03;100.00;62373.16;5070319;28;45502;-76